Time;durP1;ratioP1;P1;durP2;ratioP2;P2;SDS_P1;SDS_P2;PMS_P1;PMS_P2;Temp;Humidity;BMP_temperature;BMP_pressure;BME280_temperature;BME280_humidity;BME280_pressure;Samples;Min_cycle;Max_cycle;Signal;HPM_P1;HPM_P2
2023/10/28 00:00:49;;;;;;;8.02;3.30;;;;;;;14.28;75.54;99487.28;5028282;28;20037;-75
2023/10/28 00:03:15;;;;;;;9.13;3.72;;;;;;;14.28;75.78;99487.28;5028773;28;20061;-75
2023/10/28 00:05:46;;;;;;;11.82;3.40;;;;;;;14.33;75.71;99488.06;5029517;28;20086;-75
2023/10/28 00:08:14;;;;;;;8.52;3.38;;;;;;;14.25;76.19;99490.00;5032233;28;20132;-74
2023/10/28 00:10:40;;;;;;;9.50;3.50;;;;;;;14.34;75.85;99487.16;5032862;28;20038;-76
2023/10/28 00:13:08;;;;;;;11.90;4.00;;;;;;;14.36;75.38;99487.13;5032472;28;20155;-75
2023/10/28 00:15:35;;;;;;;10.07;4.32;;;;;;;14.32;75.72;99490.72;5032606;28;20064;-77
2023/10/28 00:18:00;;;;;;;13.60;4.40;;;;;;;14.32;75.26;99494.22;5032011;28;20049;-75
2023/10/28 00:20:29;;;;;;;10.90;4.07;;;;;;;14.28;75.17;99495.16;5031936;28;20052;-75
2023/10/28 00:22:55;;;;;;;12.90;4.50;;;;;;;14.32;75.20;99495.97;5033323;28;20398;-74
2023/10/28 00:25:31;;;;;;;16.58;4.75;;;;;;;14.23;75.45;99497.91;5032194;28;20072;-74
2023/10/28 00:27:57;;;;;;;12.32;4.20;;;;;;;14.21;75.37;99502.31;5031229;28;20044;-74
2023/10/28 00:30:26;;;;;;;12.80;4.05;;;;;;;14.21;75.57;99499.69;5033545;28;20030;-73
2023/10/28 00:32:58;;;;;;;11.48;3.85;;;;;;;14.19;75.15;99495.41;5032691;28;20056;-75
2023/10/28 00:35:24;;;;;;;11.38;3.88;;;;;;;14.16;75.35;99500.69;5033558;28;20121;-74
2023/10/28 00:37:50;;;;;;;10.88;3.65;;;;;;;14.18;74.86;99502.38;5033015;28;20065;-74
2023/10/28 00:40:31;;;;;;;8.80;3.97;;;;;;;14.16;75.20;99505.94;5034748;28;20048;-73
2023/10/28 00:42:59;;;;;;;12.65;4.07;;;;;;;14.09;75.33;99510.44;5034457;28;20034;-76
2023/10/28 00:45:26;;;;;;;9.48;3.97;;;;;;;14.13;75.46;99508.63;5035372;28;20041;-75
2023/10/28 00:47:53;;;;;;;12.18;4.13;;;;;;;14.16;75.50;99505.94;5032712;28;20049;-73
2023/10/28 00:50:19;;;;;;;9.80;3.97;;;;;;;14.21;75.64;99502.31;5033294;28;20045;-74
2023/10/28 00:52:48;;;;;;;9.75;4.07;;;;;;;14.28;75.57;99504.78;5032387;28;20407;-75
2023/10/28 00:55:14;;;;;;;14.00;4.30;;;;;;;14.27;75.50;99505.72;5033140;28;20073;-74
2023/10/28 00:57:41;;;;;;;11.98;4.40;;;;;;;14.24;75.73;99496.16;5032274;28;20079;-75
2023/10/28 01:00:11;;;;;;;12.48;4.32;;;;;;;14.26;75.59;99496.13;5032740;28;20041;-73
2023/10/28 01:02:44;;;;;;;15.88;4.45;;;;;;;14.26;75.10;99496.13;5032027;28;20033;-73
2023/10/28 01:05:14;;;;;;;12.20;4.25;;;;;;;14.20;75.25;99494.50;5032858;28;20037;-75
2023/10/28 01:07:49;;;;;;;12.25;4.30;;;;;;;14.17;74.93;99482.31;5032071;28;20162;-74
2023/10/28 01:10:36;;;;;;;12.95;4.20;;;;;;;14.15;74.95;99486.72;5032196;28;20067;-74
2023/10/28 01:13:04;;;;;;;10.75;4.30;;;;;;;14.12;75.03;99485.94;5032305;28;20053;-74
2023/10/28 01:15:29;;;;;;;10.38;4.20;;;;;;;14.11;75.03;99490.31;5032187;28;20502;-75
2023/10/28 01:17:57;;;;;;;15.00;4.50;;;;;;;14.14;75.29;99490.28;5031289;28;20159;-74
2023/10/28 01:20:22;;;;;;;14.20;4.53;;;;;;;14.17;74.86;99479.69;5033079;28;20037;-74
2023/10/28 01:22:47;;;;;;;13.73;4.47;;;;;;;14.18;75.90;99483.19;5032228;28;20145;-73
2023/10/28 01:25:13;;;;;;;11.82;4.75;;;;;;;14.21;75.90;99483.09;5033580;28;20048;-74
2023/10/28 01:27:39;;;;;;;15.45;4.97;;;;;;;14.25;76.20;99489.16;5031039;28;20037;-73
2023/10/28 01:30:13;;;;;;;10.82;4.45;;;;;;;14.33;75.67;99487.22;5035584;28;20041;-72
2023/10/28 01:32:40;;;;;;;12.55;4.38;;;;;;;14.38;75.67;99478.38;5038160;28;20037;-74
2023/10/28 01:35:20;;;;;;;13.50;4.60;;;;;;;14.41;75.73;99483.53;5034414;28;20045;-73
2023/10/28 01:37:49;;;;;;;9.52;4.15;;;;;;;14.42;75.61;99479.13;5039830;28;20106;-74
2023/10/28 01:40:14;;;;;;;16.10;4.45;;;;;;;14.41;76.25;99485.28;5032847;28;20044;-74
2023/10/28 01:42:41;;;;;;;11.23;4.50;;;;;;;14.45;76.14;99493.06;5030313;28;20029;-72
2023/10/28 01:45:09;;;;;;;14.52;4.70;;;;;;;14.43;76.24;99491.38;5032542;28;20155;-73
2023/10/28 01:47:43;;;;;;;13.45;4.63;;;;;;;14.46;76.28;99494.75;5032139;28;20087;-74
2023/10/28 01:50:12;;;;;;;12.02;4.63;;;;;;;14.55;76.04;99491.94;5031208;28;20083;-74
2023/10/28 01:52:39;;;;;;;13.10;4.90;;;;;;;14.59;75.87;99488.31;5031155;28;20491;-73
2023/10/28 01:55:05;;;;;;;15.50;5.30;;;;;;;14.58;76.11;99483.97;5030086;28;20125;-73
2023/10/28 01:57:30;;;;;;;13.32;5.28;;;;;;;14.53;76.52;99482.34;5031850;28;20117;-74
2023/10/28 01:59:58;;;;;;;12.18;4.90;;;;;;;14.65;76.33;99481.19;5031114;28;20033;-73
2023/10/28 02:02:23;;;;;;;14.55;4.68;;;;;;;14.66;76.38;99483.78;5031552;28;20091;-73
2023/10/28 02:04:48;;;;;;;12.88;5.57;;;;;;;14.59;76.77;99482.22;5030482;28;20033;-73
2023/10/28 02:07:14;;;;;;;13.55;5.15;;;;;;;14.67;76.49;99484.66;5031823;28;20041;-74
2023/10/28 02:09:39;;;;;;;14.27;5.18;;;;;;;14.75;76.15;99474.81;5030748;28;20126;-74
2023/10/28 02:12:08;;;;;;;15.30;5.50;;;;;;;14.73;76.31;99476.63;5029822;28;20034;-75
2023/10/28 02:14:36;;;;;;;12.43;5.10;;;;;;;14.66;76.90;99475.91;5031008;28;20065;-73
2023/10/28 02:17:12;;;;;;;13.98;5.50;;;;;;;14.78;76.30;99469.47;5030985;28;20046;-74
2023/10/28 02:19:38;;;;;;;14.63;5.10;;;;;;;14.73;76.41;99468.75;5030486;28;20037;-74
2023/10/28 02:22:03;;;;;;;13.15;4.82;;;;;;;14.79;76.50;99469.44;5031276;28;20087;-74
2023/10/28 02:24:35;;;;;;;15.00;5.15;;;;;;;14.87;76.02;99466.63;5029964;28;20041;-74
2023/10/28 02:27:11;;;;;;;13.73;5.30;;;;;;;14.77;76.39;99460.75;5030769;28;20426;-74
2023/10/28 02:29:37;;;;;;;15.93;5.20;;;;;;;14.76;76.44;99463.44;5027853;28;20507;-73
2023/10/28 02:32:09;;;;;;;10.00;4.90;;;;;;;14.83;76.65;99464.97;5030892;28;20091;-73
2023/10/28 02:34:37;;;;;;;11.82;4.50;;;;;;;14.90;76.06;99466.53;5029169;28;20086;-75
2023/10/28 02:37:06;;;;;;;15.32;5.13;;;;;;;14.88;76.04;99460.50;5030826;28;20037;-74
2023/10/28 02:39:31;;;;;;;15.57;4.93;;;;;;;14.80;76.35;99454.56;5029749;28;20061;-73
2023/10/28 02:42:00;;;;;;;13.00;4.70;;;;;;;14.77;75.75;99452.88;5030284;28;20025;-74
2023/10/28 02:44:35;;;;;;;15.02;4.93;;;;;;;14.66;76.14;99462.78;5030772;28;20041;-74
2023/10/28 02:47:07;;;;;;;12.50;5.10;;;;;;;14.58;76.92;99457.75;5030676;28;20447;-74
2023/10/28 02:49:35;;;;;;;13.20;4.93;;;;;;;14.66;76.08;99448.81;5030621;28;20091;-74
2023/10/28 02:52:01;;;;;;;15.18;5.28;;;;;;;14.69;76.30;99460.09;5029511;28;20035;-74
2023/10/28 02:54:26;;;;;;;12.98;4.97;;;;;;;14.67;76.58;99466.28;5030567;28;20149;-73
2023/10/28 02:56:57;;;;;;;10.45;4.85;;;;;;;14.80;76.38;99459.81;5029236;28;20045;-73
2023/10/28 02:59:22;;;;;;;14.85;5.15;;;;;;;14.82;76.51;99458.88;5029443;28;20088;-73
2023/10/28 03:01:48;;;;;;;12.63;5.03;;;;;;;14.84;76.50;99456.22;5030573;28;20037;-74
2023/10/28 03:04:13;;;;;;;9.75;4.75;;;;;;;14.66;76.94;99467.19;5030460;28;20479;-73
2023/10/28 03:06:41;;;;;;;10.98;5.00;;;;;;;14.86;76.78;99465.78;5028726;28;20045;-74
2023/10/28 03:09:07;;;;;;;13.63;4.85;;;;;;;14.68;77.25;99476.75;5030462;28;20037;-73
2023/10/28 03:11:32;;;;;;;13.82;5.10;;;;;;;14.32;78.92;99481.09;5031669;28;20049;-74
2023/10/28 03:13:57;;;;;;;11.45;4.65;;;;;;;14.65;78.29;99478.56;5046696;28;20064;-74
2023/10/28 03:16:23;;;;;;;12.02;4.70;;;;;;;14.40;78.82;99475.69;5047572;28;20103;-74
2023/10/28 03:18:48;;;;;;;9.73;4.60;;;;;;;14.28;77.53;99483.81;5035500;28;20034;-74
2023/10/28 03:21:26;;;;;;;9.77;4.22;;;;;;;14.50;77.57;99478.06;5030063;28;20038;-73
2023/10/28 03:23:51;;;;;;;6.60;3.70;;;;;;;14.74;76.32;99471.34;5031471;28;20101;-73
2023/10/28 03:26:17;;;;;;;10.13;3.88;;;;;;;14.72;76.07;99467.88;5036464;28;20088;-73
2023/10/28 03:28:46;;;;;;;10.85;3.90;;;;;;;14.72;75.34;99467.88;5035555;28;20033;-73
2023/10/28 03:31:20;;;;;;;9.70;4.25;;;;;;;14.72;75.74;99461.78;5037386;28;20479;-72
2023/10/28 03:33:46;;;;;;;7.93;3.50;;;;;;;14.80;75.13;99458.06;5036413;28;20029;-74
2023/10/28 03:36:11;;;;;;;7.75;3.65;;;;;;;14.70;75.14;99460.97;5031508;28;20136;-75
2023/10/28 03:38:40;;;;;;;10.30;4.03;;;;;;;14.54;76.26;99458.72;5027590;28;20514;-74
2023/10/28 03:41:09;;;;;;;9.15;4.13;;;;;;;14.56;76.08;99474.44;5031274;28;20441;-73
2023/10/28 03:43:35;;;;;;;8.75;3.92;;;;;;;14.52;76.19;99464.91;5033801;28;20384;-74
2023/10/28 03:46:01;;;;;;;6.57;3.58;;;;;;;14.57;74.74;99461.28;5033850;28;20041;-74
2023/10/28 03:48:33;;;;;;;8.02;3.72;;;;;;;14.45;75.00;99464.22;5034447;28;20037;-74
2023/10/28 03:51:00;;;;;;;8.63;3.67;;;;;;;14.58;75.45;99469.97;5032300;28;20060;-73
2023/10/28 03:53:26;;;;;;;7.28;3.40;;;;;;;14.48;75.46;99463.25;5033948;28;20034;-74
2023/10/28 03:55:51;;;;;;;6.25;3.45;;;;;;;14.69;74.61;99462.72;5033333;28;20496;-74
2023/10/28 03:58:17;;;;;;;8.40;3.25;;;;;;;14.65;74.83;99457.59;5032163;28;20128;-74
2023/10/28 04:00:44;;;;;;;6.22;3.30;;;;;;;14.69;74.77;99452.25;5033793;28;20034;-73
2023/10/28 04:03:23;;;;;;;6.75;3.00;;;;;;;14.77;74.41;99445.00;5033767;28;20091;-75
2023/10/28 04:05:54;;;;;;;7.90;3.10;;;;;;;14.76;74.66;99450.31;5033713;28;20037;-75
2023/10/28 04:08:20;;;;;;;6.47;3.50;;;;;;;14.63;74.87;99460.25;5032652;28;20037;-74
2023/10/28 04:10:52;;;;;;;7.22;3.38;;;;;;;14.63;74.93;99443.66;5032968;28;20040;-74
2023/10/28 04:13:18;;;;;;;5.03;3.00;;;;;;;14.75;74.52;99444.22;5032104;28;20617;-74
2023/10/28 04:15:45;;;;;;;5.97;3.25;;;;;;;14.70;74.95;99442.63;5033093;28;20088;-74
2023/10/28 04:18:10;;;;;;;7.82;3.33;;;;;;;14.58;74.78;99447.25;5032352;28;20499;-74
2023/10/28 04:20:37;;;;;;;7.57;3.30;;;;;;;14.69;74.97;99443.50;5031876;28;20045;-75
2023/10/28 04:23:08;;;;;;;6.88;3.03;;;;;;;14.84;74.29;99441.31;5032070;28;20037;-74
2023/10/28 04:25:34;;;;;;;7.55;3.20;;;;;;;14.80;74.42;99446.69;5033492;28;20071;-74
2023/10/28 04:28:03;;;;;;;6.68;3.30;;;;;;;14.81;74.51;99444.03;5033302;28;20075;-74
2023/10/28 04:30:30;;;;;;;5.68;3.17;;;;;;;14.86;74.15;99442.16;5033094;28;20051;-74
2023/10/28 04:32:58;;;;;;;5.20;3.28;;;;;;;14.84;73.86;99443.94;5032913;28;20453;-74
2023/10/28 04:35:26;;;;;;;7.30;3.72;;;;;;;14.50;75.46;99443.13;5033243;28;20125;-74
2023/10/28 04:37:52;;;;;;;6.32;3.67;;;;;;;14.47;75.96;99445.78;5033122;28;20191;-75
2023/10/28 04:40:17;;;;;;;7.68;3.90;;;;;;;14.63;76.01;99439.28;5033684;28;20120;-74
2023/10/28 04:42:43;;;;;;;6.90;3.80;;;;;;;14.80;75.11;99436.22;5032971;28;20074;-75
2023/10/28 04:45:10;;;;;;;7.50;4.00;;;;;;;14.88;74.40;99434.25;5031485;28;20041;-75
2023/10/28 04:47:35;;;;;;;9.32;3.97;;;;;;;14.80;74.69;99438.84;5032880;28;20037;-75
2023/10/28 04:50:10;;;;;;;8.50;4.07;;;;;;;14.81;74.37;99430.94;5033049;28;20041;-74
2023/10/28 04:52:36;;;;;;;6.68;3.90;;;;;;;14.76;74.79;99435.41;5030899;28;20118;-74
2023/10/28 04:55:04;;;;;;;7.93;3.90;;;;;;;14.92;74.02;99428.00;5033098;28;20494;-74
2023/10/28 04:57:30;;;;;;;7.40;4.00;;;;;;;14.92;74.42;99428.88;5033069;28;20522;-73
2023/10/28 04:59:55;;;;;;;7.53;3.80;;;;;;;14.76;74.68;99429.34;5032986;28;20104;-73
2023/10/28 05:02:20;;;;;;;8.20;3.80;;;;;;;14.88;74.64;99426.38;5033510;28;20111;-73
2023/10/28 05:04:46;;;;;;;6.95;4.03;;;;;;;14.89;74.63;99425.44;5031177;28;20037;-75
2023/10/28 05:07:14;;;;;;;9.50;3.63;;;;;;;14.95;74.42;99425.28;5032899;28;20034;-75
2023/10/28 05:09:39;;;;;;;6.78;4.07;;;;;;;14.87;74.49;99428.13;5031673;28;20531;-75
2023/10/28 05:12:11;;;;;;;8.15;3.95;;;;;;;14.99;74.45;99429.56;5031250;28;20043;-73
2023/10/28 05:14:36;;;;;;;8.63;4.30;;;;;;;15.05;73.77;99416.28;5030397;28;20057;-74
2023/10/28 05:17:02;;;;;;;8.73;4.30;;;;;;;15.08;73.47;99418.78;5031089;28;20115;-74
2023/10/28 05:19:27;;;;;;;10.38;4.28;;;;;;;15.16;73.03;99419.44;5030995;28;20464;-74
2023/10/28 05:21:54;;;;;;;8.27;4.20;;;;;;;15.16;72.81;99418.59;5031807;28;20044;-74
2023/10/28 05:24:22;;;;;;;8.77;4.05;;;;;;;15.21;72.74;99420.19;5032044;28;20064;-74
2023/10/28 05:27:00;;;;;;;7.70;4.40;;;;;;;15.19;72.81;99415.88;5031262;28;20033;-74
2023/10/28 05:29:34;;;;;;;6.95;4.15;;;;;;;15.13;72.92;99418.66;5032118;28;20034;-74
2023/10/28 05:31:59;;;;;;;10.38;4.40;;;;;;;15.08;73.19;99423.19;5031745;28;20050;-75
2023/10/28 05:34:25;;;;;;;9.77;4.60;;;;;;;15.22;72.90;99415.78;5031737;28;20055;-74
2023/10/28 05:36:50;;;;;;;10.02;4.72;;;;;;;15.14;72.68;99416.00;5031207;28;20033;-74
2023/10/28 05:39:16;;;;;;;13.10;4.68;;;;;;;15.12;73.16;99417.81;5032901;28;20066;-75
2023/10/28 05:41:41;;;;;;;11.35;4.72;;;;;;;15.10;72.87;99419.63;5034630;28;20052;-74
2023/10/28 05:44:06;;;;;;;9.95;4.70;;;;;;;15.20;73.02;99414.97;5036036;28;20049;-74
2023/10/28 05:46:32;;;;;;;8.63;4.18;;;;;;;15.19;73.38;99414.09;5032667;28;20037;-73
2023/10/28 05:48:58;;;;;;;8.60;4.28;;;;;;;15.11;74.06;99410.00;5031884;28;20033;-74
2023/10/28 05:51:23;;;;;;;7.43;4.43;;;;;;;14.80;74.56;99409.97;5032186;28;20053;-74
2023/10/28 05:53:49;;;;;;;6.47;4.22;;;;;;;15.02;73.88;99408.47;5030745;28;20491;-72
2023/10/28 05:56:16;;;;;;;8.55;4.30;;;;;;;15.18;73.23;99411.53;5031230;28;20057;-73
2023/10/28 05:58:41;;;;;;;10.23;4.30;;;;;;;15.09;73.52;99411.78;5030629;28;20057;-73
2023/10/28 06:01:16;;;;;;;8.43;4.20;;;;;;;15.26;73.03;99414.78;5030098;28;20489;-73
2023/10/28 06:03:41;;;;;;;9.45;4.13;;;;;;;15.01;73.72;99412.84;5030602;28;20061;-74
2023/10/28 06:06:06;;;;;;;12.38;4.60;;;;;;;15.24;73.44;99420.09;5031229;28;20424;-73
2023/10/28 06:08:32;;;;;;;8.52;4.35;;;;;;;15.10;73.89;99410.88;5030061;28;20045;-73
2023/10/28 06:10:57;;;;;;;14.15;4.38;;;;;;;15.20;73.76;99410.56;5030741;28;20033;-73
2023/10/28 06:13:23;;;;;;;9.35;4.80;;;;;;;15.20;73.38;99413.19;5031284;28;20035;-74
2023/10/28 06:15:48;;;;;;;8.52;4.80;;;;;;;14.77;75.91;99413.53;5030632;28;20064;-74
2023/10/28 06:18:14;;;;;;;9.45;4.80;;;;;;;14.97;75.04;99413.84;5029417;28;20045;-74
2023/10/28 06:20:39;;;;;;;13.55;4.93;;;;;;;15.06;74.47;99412.75;5030713;28;20037;-74
2023/10/28 06:23:06;;;;;;;10.75;5.03;;;;;;;14.96;74.68;99406.88;5031169;28;20034;-76
2023/10/28 06:25:34;;;;;;;8.85;5.03;;;;;;;14.94;74.95;99411.28;5029672;28;20038;-73
2023/10/28 06:28:01;;;;;;;9.55;5.38;;;;;;;15.28;73.78;99418.25;5028806;28;20061;-74
2023/10/28 06:30:26;;;;;;;10.48;5.30;;;;;;;15.09;74.74;99417.03;5029694;28;20048;-75
2023/10/28 06:32:52;;;;;;;10.35;5.45;;;;;;;14.91;75.20;99419.28;5028837;28;20041;-75
2023/10/28 06:35:18;;;;;;;9.52;5.15;;;;;;;15.06;74.89;99423.25;5029107;28;20079;-75
2023/10/28 06:37:44;;;;;;;8.73;4.93;;;;;;;15.05;74.66;99413.66;5028903;28;20076;-74
2023/10/28 06:40:15;;;;;;;9.43;4.90;;;;;;;15.05;74.21;99415.41;5030865;28;20065;-75
2023/10/28 06:42:41;;;;;;;9.82;4.80;;;;;;;15.26;73.88;99417.41;5030315;28;20475;-75
2023/10/28 06:45:07;;;;;;;13.50;4.70;;;;;;;15.34;73.60;99420.69;5028817;28;20124;-75
2023/10/28 06:47:34;;;;;;;7.47;4.45;;;;;;;15.44;72.95;99419.50;5028500;28;20046;-74
2023/10/28 06:50:04;;;;;;;11.02;4.40;;;;;;;15.51;72.72;99426.31;5030167;28;20503;-75
2023/10/28 06:52:31;;;;;;;9.38;4.75;;;;;;;15.53;72.80;99429.78;5029083;28;20049;-75
2023/10/28 06:54:59;;;;;;;7.70;4.40;;;;;;;15.48;72.83;99425.53;5028095;28;20048;-74
2023/10/28 06:57:24;;;;;;;7.20;4.55;;;;;;;15.37;73.32;99429.31;5030722;28;20038;-75
2023/10/28 06:59:49;;;;;;;8.93;4.53;;;;;;;15.46;72.84;99422.97;5028543;28;20040;-75
2023/10/28 07:02:15;;;;;;;7.88;3.92;;;;;;;15.59;72.90;99423.50;5030551;28;20459;-74
2023/10/28 07:04:40;;;;;;;9.25;4.10;;;;;;;15.34;73.10;99423.31;5029945;28;20052;-76
2023/10/28 07:07:06;;;;;;;8.15;4.00;;;;;;;15.43;73.50;99423.91;5030632;28;20080;-75
2023/10/28 07:09:35;;;;;;;6.95;3.60;;;;;;;15.64;72.93;99426.84;5030282;28;20034;-74
2023/10/28 07:12:01;;;;;;;8.30;3.75;;;;;;;15.62;72.53;99426.88;5028937;28;20053;-75
2023/10/28 07:14:26;;;;;;;8.35;3.47;;;;;;;15.65;72.80;99424.16;5028748;28;20500;-74
2023/10/28 07:16:51;;;;;;;6.38;3.50;;;;;;;15.61;72.88;99424.31;5030316;28;20041;-74
2023/10/28 07:19:22;;;;;;;8.07;3.85;;;;;;;15.60;73.40;99428.69;5029847;28;20686;-74
2023/10/28 07:21:48;;;;;;;10.32;3.80;;;;;;;15.64;73.15;99432.94;5028319;28;20044;-75
2023/10/28 07:24:13;;;;;;;7.57;3.58;;;;;;;15.69;72.68;99432.81;5028703;28;20034;-75
2023/10/28 07:26:38;;;;;;;7.32;3.40;;;;;;;15.66;72.46;99433.78;5029669;28;20465;-75
2023/10/28 07:29:06;;;;;;;9.75;3.28;;;;;;;15.76;72.43;99440.47;5030576;28;20521;-75
2023/10/28 07:31:38;;;;;;;9.18;3.28;;;;;;;15.75;72.32;99433.47;5029043;28;20065;-76
2023/10/28 07:34:07;;;;;;;11.57;3.20;;;;;;;15.79;72.25;99440.38;5028609;28;20044;-75
2023/10/28 07:36:36;;;;;;;10.57;3.42;;;;;;;15.57;73.45;99446.31;5030258;28;20474;-76
2023/10/28 07:39:09;;;;;;;11.40;3.55;;;;;;;15.79;72.56;99444.78;5028249;28;20083;-75
2023/10/28 07:41:34;;;;;;;9.85;3.08;;;;;;;15.77;72.38;99444.81;5029522;28;20046;-77
2023/10/28 07:44:03;;;;;;;7.28;2.83;;;;;;;15.83;72.14;99443.75;5030488;28;20049;-75
2023/10/28 07:46:30;;;;;;;5.68;2.80;;;;;;;15.90;71.90;99447.94;5030348;28;20617;-76
2023/10/28 07:49:01;;;;;;;8.48;2.92;;;;;;;15.89;71.78;99448.84;5028689;28;20424;-75
2023/10/28 07:51:27;;;;;;;9.20;3.20;;;;;;;15.77;72.31;99450.06;5030011;28;20033;-74
2023/10/28 07:53:52;;;;;;;9.52;3.20;;;;;;;15.43;74.00;99449.28;5029549;28;20052;-75
2023/10/28 07:56:18;;;;;;;9.15;3.13;;;;;;;15.49;74.14;99451.75;5029060;28;20653;-76
2023/10/28 07:58:47;;;;;;;7.75;3.00;;;;;;;15.65;73.33;99454.81;5027943;28;20096;-75
2023/10/28 08:01:19;;;;;;;7.88;2.92;;;;;;;15.75;73.29;99451.88;5028986;28;20092;-75
2023/10/28 08:03:47;;;;;;;9.90;2.97;;;;;;;15.79;72.95;99456.16;5028396;28;20041;-75
2023/10/28 08:06:17;;;;;;;9.27;3.17;;;;;;;15.63;73.31;99454.00;5028815;28;20151;-75
2023/10/28 08:08:46;;;;;;;11.35;2.78;;;;;;;15.56;74.09;99453.31;5030419;28;20453;-75
2023/10/28 08:11:18;;;;;;;8.93;3.00;;;;;;;15.58;73.48;99453.28;5031333;28;20576;-75
2023/10/28 08:13:44;;;;;;;6.80;2.95;;;;;;;15.88;73.03;99464.63;5031210;28;20030;-74
2023/10/28 08:16:09;;;;;;;8.50;3.10;;;;;;;15.90;72.93;99458.44;5034456;28;20068;-76
2023/10/28 08:18:36;;;;;;;7.90;2.85;;;;;;;15.76;73.24;99461.47;5035022;28;20120;-76
2023/10/28 08:21:01;;;;;;;9.45;3.30;;;;;;;15.69;73.24;99459.94;5030701;28;20184;-75
2023/10/28 08:23:28;;;;;;;8.35;2.80;;;;;;;15.79;73.32;99461.41;5031907;28;20068;-74
2023/10/28 08:25:57;;;;;;;7.10;2.70;;;;;;;15.92;73.04;99453.16;5029684;28;20486;-76
2023/10/28 08:28:28;;;;;;;10.30;2.75;;;;;;;15.97;73.01;99461.75;5035011;28;20033;-76
2023/10/28 08:30:56;;;;;;;8.07;2.70;;;;;;;15.92;72.49;99453.16;5035086;28;20048;-75
2023/10/28 08:33:22;;;;;;;9.88;2.70;;;;;;;15.59;74.00;99457.63;5031884;28;20026;-75
2023/10/28 08:35:48;;;;;;;9.55;2.90;;;;;;;15.78;73.84;99459.69;5031439;28;20569;-75
2023/10/28 08:38:17;;;;;;;8.55;2.80;;;;;;;16.01;72.88;99456.34;5033285;28;20033;-75
2023/10/28 08:40:46;;;;;;;8.07;2.80;;;;;;;15.85;73.21;99465.63;5030888;28;20073;-76
2023/10/28 08:43:14;;;;;;;11.88;2.90;;;;;;;15.80;73.49;99468.34;5033169;28;20124;-76
2023/10/28 08:45:40;;;;;;;9.30;2.58;;;;;;;15.93;73.30;99473.25;5031142;28;20566;-77
2023/10/28 08:48:06;;;;;;;9.10;2.90;;;;;;;15.99;72.69;99465.16;5032823;28;20040;-76
2023/10/28 08:50:33;;;;;;;8.77;2.70;;;;;;;16.05;72.45;99471.09;5032957;28;20117;-75
2023/10/28 08:53:00;;;;;;;8.15;2.72;;;;;;;16.08;72.56;99484.16;5033033;28;20030;-76
2023/10/28 08:55:26;;;;;;;5.82;2.80;;;;;;;16.00;72.68;99482.66;5033298;28;20064;-74
2023/10/28 08:57:52;;;;;;;9.40;2.33;;;;;;;15.95;72.02;99482.81;5032857;28;20034;-76
2023/10/28 09:00:23;;;;;;;9.75;2.55;;;;;;;15.92;73.07;99485.50;5034630;28;20136;-76
2023/10/28 09:02:49;;;;;;;8.32;2.40;;;;;;;15.97;72.55;99485.41;5031679;28;20552;-76
2023/10/28 09:05:18;;;;;;;4.40;1.80;;;;;;;16.08;72.36;99491.19;5033115;28;20041;-76
2023/10/28 09:07:43;;;;;;;8.40;2.10;;;;;;;15.81;72.40;99491.09;5031201;28;20102;-76
2023/10/28 09:10:13;;;;;;;5.45;2.20;;;;;;;15.99;72.71;99491.44;5031541;28;20064;-76
2023/10/28 09:12:39;;;;;;;6.03;2.40;;;;;;;16.15;72.04;99495.34;5032535;28;20059;-75
2023/10/28 09:15:06;;;;;;;6.63;2.50;;;;;;;15.79;72.47;99492.94;5033129;28;20468;-77
2023/10/28 09:17:31;;;;;;;8.15;2.53;;;;;;;15.76;73.31;99494.78;5033168;28;20032;-76
2023/10/28 09:20:00;;;;;;;8.27;2.17;;;;;;;16.28;72.06;99495.81;5032649;28;20033;-76
2023/10/28 09:22:26;;;;;;;7.90;2.50;;;;;;;16.43;70.79;99501.44;5033629;28;20068;-75
2023/10/28 09:24:55;;;;;;;8.40;2.42;;;;;;;16.53;71.01;99500.22;5032830;28;20068;-76
2023/10/28 09:27:21;;;;;;;7.82;2.47;;;;;;;16.60;70.74;99499.16;5035641;28;20061;-76
2023/10/28 09:29:46;;;;;;;4.45;1.98;;;;;;;16.57;70.48;99504.50;5038303;28;20044;-75
2023/10/28 09:32:13;;;;;;;9.52;2.40;;;;;;;16.71;70.22;99501.41;5037672;28;20045;-75
2023/10/28 09:34:39;;;;;;;5.80;2.10;;;;;;;16.84;69.36;99504.50;5037795;28;20049;-75
2023/10/28 09:37:09;;;;;;;6.68;2.42;;;;;;;16.58;69.41;99506.22;5038867;28;20046;-77
2023/10/28 09:39:35;;;;;;;8.85;2.50;;;;;;;16.80;68.65;99510.78;5032992;28;20037;-76
2023/10/28 09:42:04;;;;;;;5.60;2.22;;;;;;;16.51;69.32;99515.22;5032492;28;20044;-77
2023/10/28 09:44:30;;;;;;;6.03;2.17;;;;;;;16.56;69.71;99513.28;5030569;28;20041;-75
2023/10/28 09:47:03;;;;;;;7.25;2.50;;;;;;;16.54;68.84;99512.47;5031588;28;20538;-76
2023/10/28 09:49:43;;;;;;;7.95;2.40;;;;;;;16.67;69.01;99522.63;5031919;28;20056;-76
2023/10/28 09:52:13;;;;;;;9.48;2.45;;;;;;;16.72;68.90;99515.44;5030588;28;20495;-76
2023/10/28 09:54:42;;;;;;;6.72;2.35;;;;;;;16.88;68.46;99512.28;5029822;28;20354;-75
2023/10/28 09:57:11;;;;;;;7.90;2.42;;;;;;;16.54;69.12;99514.25;5030431;28;20109;-75
2023/10/28 09:59:39;;;;;;;7.72;2.60;;;;;;;16.78;68.88;99523.13;5031011;28;20042;-76
2023/10/28 10:02:27;;;;;;;6.00;2.72;;;;;;;16.77;68.29;99516.19;5031337;28;20053;-76
2023/10/28 10:05:14;;;;;;;6.40;2.63;;;;;;;16.57;68.89;99516.78;5029749;28;20479;-75
2023/10/28 10:07:44;;;;;;;7.82;2.67;;;;;;;16.49;68.27;99524.94;5030381;28;20036;-76
2023/10/28 10:10:13;;;;;;;4.90;2.60;;;;;;;16.82;67.55;99523.00;5031172;28;20105;-77
2023/10/28 10:12:42;;;;;;;7.13;2.50;;;;;;;16.61;67.54;99524.56;5029727;28;20037;-76
2023/10/28 10:15:19;;;;;;;7.07;2.30;;;;;;;16.81;67.09;99533.56;5031916;28;20048;-76
2023/10/28 10:18:21;;;;;;;6.32;3.00;;;;;;;16.80;67.28;99531.84;5031320;28;20111;-76
2023/10/28 10:20:47;;;;;;;6.82;2.30;;;;;;;16.75;67.10;99539.03;5030710;28;20164;-75
2023/10/28 10:23:13;;;;;;;5.07;2.40;;;;;;;17.02;66.08;99541.59;5031728;28;20041;-74
2023/10/28 10:25:45;;;;;;;7.72;2.42;;;;;;;16.88;66.56;99543.84;5031319;28;20065;-75
2023/10/28 10:28:15;;;;;;;6.85;2.50;;;;;;;16.66;66.96;99545.44;5030984;28;20387;-74
2023/10/28 10:30:42;;;;;;;5.47;2.10;;;;;;;17.09;66.32;99547.53;5031180;28;20080;-75
2023/10/28 10:33:08;;;;;;;7.15;2.30;;;;;;;16.97;65.81;99542.66;5030370;28;20037;-74
2023/10/28 10:35:34;;;;;;;6.93;2.17;;;;;;;16.89;66.48;99542.94;5029937;28;20136;-76
2023/10/28 10:38:04;;;;;;;4.90;2.00;;;;;;;16.72;66.16;99544.38;5031411;28;20099;-76
2023/10/28 10:40:59;;;;;;;5.72;1.83;;;;;;;16.70;66.09;99541.84;5030876;28;20648;-76
2023/10/28 10:43:29;;;;;;;;;;;;;;;17.32;64.66;99544.13;5025822;28;20402;-76
2023/10/28 10:46:00;;;;;;;6.68;1.75;;;;;;;17.66;64.12;99527.97;5032042;28;19927;-73
2023/10/28 10:48:26;;;;;;;5.65;1.70;;;;;;;17.70;63.31;99535.69;5034281;28;20033;-76
2023/10/28 10:50:59;;;;;;;3.70;1.70;;;;;;;17.52;63.03;99530.22;5037661;28;20052;-75
2023/10/28 10:53:27;;;;;;;9.23;1.98;;;;;;;17.81;62.12;99532.66;5030730;28;20121;-74
2023/10/28 10:55:59;;;;;;;4.68;1.80;;;;;;;17.70;61.45;99533.06;5031759;28;20049;-75
2023/10/28 10:58:28;;;;;;;7.28;1.98;;;;;;;17.99;61.46;99537.25;5031496;28;20060;-77
2023/10/28 11:00:55;;;;;;;4.70;1.95;;;;;;;18.01;62.00;99537.19;5029292;28;20046;-75
2023/10/28 11:03:21;;;;;;;7.28;1.92;;;;;;;17.69;60.99;99528.69;5031021;28;20080;-76
2023/10/28 11:05:47;;;;;;;7.00;1.90;;;;;;;17.83;61.76;99534.34;5030370;28;20048;-77
2023/10/28 11:08:18;;;;;;;6.30;1.70;;;;;;;17.49;61.64;99531.19;5028979;28;20503;-74
2023/10/28 11:10:45;;;;;;;6.25;1.90;;;;;;;17.65;61.43;99539.41;5030538;28;20048;-75
2023/10/28 11:13:10;;;;;;;6.55;2.03;;;;;;;17.51;62.36;99526.72;5031119;28;20083;-76
2023/10/28 11:15:36;;;;;;;5.45;1.60;;;;;;;17.82;62.22;99524.69;5028757;28;20037;-75
2023/10/28 11:18:01;;;;;;;5.07;1.60;;;;;;;18.07;61.80;99526.41;5030454;28;20091;-75
2023/10/28 11:20:30;;;;;;;5.55;1.77;;;;;;;17.98;62.30;99521.50;5030270;28;20510;-75
2023/10/28 11:22:56;;;;;;;6.90;1.63;;;;;;;17.95;62.41;99519.81;5028851;28;20387;-75
2023/10/28 11:25:30;;;;;;;12.70;1.80;;;;;;;17.99;62.40;99524.06;5029071;28;20041;-76
2023/10/28 11:27:56;;;;;;;8.07;1.63;;;;;;;17.57;63.60;99515.06;5029922;28;20029;-75
2023/10/28 11:30:21;;;;;;;5.95;1.60;;;;;;;18.17;61.77;99520.72;5029075;28;20501;-75
2023/10/28 11:32:46;;;;;;;7.93;1.83;;;;;;;18.25;60.68;99520.41;5030179;28;20049;-75
2023/10/28 11:35:12;;;;;;;7.68;1.60;;;;;;;18.09;60.78;99520.16;5030590;28;20034;-75